Time;durP1;ratioP1;P1;durP2;ratioP2;P2;SDS_P1;SDS_P2;PMS_P1;PMS_P2;Temp;Humidity;BMP_temperature;BMP_pressure;BME280_temperature;BME280_humidity;BME280_pressure;Samples;Min_cycle;Max_cycle;Signal;HPM_P1;HPM_P2
2022/06/12 00:00:50;;;;;;;4.50;2.70;;;19.20;99.90;;;;;;5058816;28;20470;-83
2022/06/12 00:03:19;;;;;;;8.00;3.23;;;19.20;99.90;;;;;;5058374;28;20972;-82
2022/06/12 00:05:49;;;;;;;6.03;2.90;;;19.20;99.90;;;;;;5057359;28;20791;-83
2022/06/12 00:08:16;;;;;;;5.20;2.80;;;19.20;99.90;;;;;;5057554;28;20446;-82
2022/06/12 00:10:44;;;;;;;4.57;3.77;;;19.20;99.90;;;;;;5057851;28;20421;-83
2022/06/12 00:13:12;;;;;;;7.03;3.67;;;19.20;99.90;;;;;;5056622;28;20513;-82
2022/06/12 00:15:38;;;;;;;6.90;3.77;;;19.10;99.90;;;;;;5057359;28;20896;-82
2022/06/12 00:18:05;;;;;;;5.00;3.03;;;19.10;99.90;;;;;;5057048;28;20414;-82
2022/06/12 00:20:31;;;;;;;4.40;2.90;;;19.10;99.90;;;;;;5056952;28;20434;-82
2022/06/12 00:22:58;;;;;;;7.17;3.30;;;19.10;99.90;;;;;;5057286;28;20940;-82
2022/06/12 00:25:27;;;;;;;7.60;3.40;;;19.10;99.90;;;;;;5055954;28;20993;-82
2022/06/12 00:27:52;;;;;;;8.80;3.63;;;19.10;99.90;;;;;;5057345;28;20465;-82
2022/06/12 00:30:21;;;;;;;5.87;3.37;;;19.00;99.90;;;;;;5057730;28;20430;-82
2022/06/12 00:32:52;;;;;;;7.10;3.53;;;19.00;99.90;;;;;;5056875;28;20657;-82
2022/06/12 00:35:21;;;;;;;5.50;2.63;;;18.90;99.90;;;;;;5057783;28;20446;-83
2022/06/12 00:37:46;;;;;;;8.77;3.80;;;18.90;99.90;;;;;;5055761;28;20433;-82
2022/06/12 00:40:13;;;;;;;6.17;3.47;;;18.80;99.90;;;;;;5057232;28;20414;-82
2022/06/12 00:42:45;;;;;;;6.77;4.07;;;18.90;99.90;;;;;;5055577;28;20643;-82
2022/06/12 00:45:32;;;;;;;7.80;3.80;;;18.70;99.90;;;;;;5063303;28;20438;-81
2022/06/12 00:48:04;;;;;;;7.03;4.20;;;18.70;99.90;;;;;;5059295;28;20975;-82
2022/06/12 00:50:30;;;;;;;7.07;3.60;;;18.60;99.90;;;;;;5058971;28;20406;-81
2022/06/12 00:52:57;;;;;;;5.90;3.53;;;18.60;99.90;;;;;;5058851;28;20403;-82
2022/06/12 00:55:37;;;;;;;5.90;3.43;;;18.60;99.90;;;;;;5058440;28;20513;-82
2022/06/12 00:58:08;;;;;;;12.20;4.53;;;18.50;99.90;;;;;;5058096;28;20768;-82
2022/06/12 01:00:36;;;;;;;5.30;3.27;;;18.40;99.90;;;;;;5057991;28;20399;-81
2022/06/12 01:03:02;;;;;;;5.13;3.30;;;18.30;99.90;;;;;;5057193;28;20449;-82
2022/06/12 01:08:13;;;;;;;6.90;4.60;;;18.30;99.90;;;;;;5057427;28;20199;-82
2022/06/12 01:10:42;;;;;;;4.80;3.87;;;18.40;99.90;;;;;;5057115;28;20418;-82
2022/06/12 01:13:16;;;;;;;6.47;3.80;;;18.30;99.90;;;;;;5057012;28;20844;-82
2022/06/12 01:15:50;;;;;;;9.23;4.57;;;18.20;99.90;;;;;;5056408;28;20427;-81
2022/06/12 01:18:19;;;;;;;5.40;4.17;;;18.20;99.90;;;;;;5055044;28;20482;-81
2022/06/12 01:21:29;;;;;;;9.13;4.50;;;18.20;99.90;;;;;;5054941;28;20457;-81
2022/06/12 01:24:21;;;;;;;14.20;4.80;;;18.10;99.90;;;;;;5056457;28;20438;-82
2022/06/12 01:27:09;;;;;;;8.23;4.40;;;18.10;99.90;;;;;;5057238;28;20446;-82
2022/06/12 01:29:51;;;;;;;5.33;4.07;;;18.00;99.90;;;;;;5057679;28;20436;-81
2022/06/12 01:32:30;;;;;;;7.10;4.40;;;18.00;99.90;;;;;;5056076;28;20429;-82
2022/06/12 01:35:03;;;;;;;7.67;4.57;;;17.90;99.90;;;;;;5055737;28;20453;-81
2022/06/12 01:37:54;;;;;;;8.33;4.60;;;17.80;99.90;;;;;;5057391;28;20410;-81
2022/06/12 01:40:37;;;;;;;11.27;4.90;;;17.80;99.90;;;;;;5057575;28;20402;-81
2022/06/12 01:43:22;;;;;;;6.47;4.33;;;17.80;99.90;;;;;;5055307;28;20444;-81
2022/06/12 01:46:12;;;;;;;7.00;4.30;;;17.80;99.90;;;;;;5056341;28;20434;-81
2022/06/12 01:48:48;;;;;;;5.10;4.00;;;17.80;99.90;;;;;;5057145;28;20834;-81
2022/06/12 01:51:40;;;;;;;8.37;4.47;;;17.70;99.90;;;;;;5056632;28;20382;-81
2022/06/12 01:54:19;;;;;;;10.40;4.40;;;17.60;99.90;;;;;;5056009;28;20501;-81
2022/06/12 01:56:56;;;;;;;6.60;4.57;;;17.60;99.90;;;;;;5055741;28;20390;-82
2022/06/12 01:59:38;;;;;;;6.57;4.00;;;17.60;99.90;;;;;;5057169;28;20810;-81
2022/06/12 02:02:16;;;;;;;6.30;5.23;;;17.60;99.90;;;;;;5056842;28;20859;-81
2022/06/12 02:04:51;;;;;;;6.83;4.17;;;17.50;99.90;;;;;;5056246;28;20845;-81
2022/06/12 02:07:22;;;;;;;8.33;4.20;;;17.50;99.90;;;;;;5056124;28;20849;-81
2022/06/12 02:10:01;;;;;;;5.23;4.63;;;17.40;99.90;;;;;;5055858;28;20764;-81
2022/06/12 02:15:32;;;;;;;8.10;4.23;;;17.40;99.90;;;;;;5055205;28;20429;-81
2022/06/12 02:18:07;;;;;;;7.33;4.33;;;17.40;99.90;;;;;;5053314;28;21021;-81
2022/06/12 02:20:43;;;;;;;8.73;4.70;;;17.20;99.90;;;;;;5053304;28;20458;-81
2022/06/12 02:23:16;;;;;;;10.47;3.87;;;17.30;99.90;;;;;;5054873;28;20402;-81
2022/06/12 02:25:45;;;;;;;8.20;4.20;;;17.20;99.90;;;;;;5052932;28;20445;-81
2022/06/12 02:28:18;;;;;;;5.40;4.00;;;17.20;99.90;;;;;;5054479;28;20480;-81
2022/06/12 02:30:52;;;;;;;5.60;3.77;;;17.10;99.90;;;;;;5054631;28;20402;-81
2022/06/12 02:33:23;;;;;;;9.87;4.20;;;17.00;99.90;;;;;;5054543;28;20402;-81
2022/06/12 02:36:01;;;;;;;7.87;4.10;;;17.10;99.90;;;;;;5054085;28;20876;-81
2022/06/12 02:38:35;;;;;;;6.67;4.87;;;17.00;99.90;;;;;;5054743;28;20481;-81
2022/06/12 02:41:08;;;;;;;6.03;3.77;;;;;;;;;;5054023;28;20404;-81
2022/06/12 02:43:36;;;;;;;10.40;4.97;;;16.90;99.90;;;;;;5052884;28;20402;-81
2022/06/12 02:46:07;;;;;;;8.37;4.20;;;16.80;99.90;;;;;;5052262;28;20488;-81
2022/06/12 02:48:33;;;;;;;6.40;3.90;;;16.80;99.90;;;;;;5054255;28;20527;-81
2022/06/12 02:51:23;;;;;;;8.77;4.20;;;16.80;99.90;;;;;;5093667;22;20415;-78
2022/06/12 02:54:09;;;;;;;7.13;4.83;;;16.90;99.90;;;;;;5010829;28;20428;-80
2022/06/12 02:57:08;;;;;;;5.93;4.30;;;16.90;99.90;;;;;;5012686;28;20407;-80
2022/06/12 02:59:39;;;;;;;9.03;5.93;;;16.80;99.90;;;;;;4995190;28;20420;-79
2022/06/12 03:02:17;;;;;;;7.40;4.80;;;16.70;99.90;;;;;;4991888;28;20437;-80
2022/06/12 03:04:53;;;;;;;14.83;5.37;;;16.70;99.90;;;;;;4993710;28;20915;-79
2022/06/12 03:07:19;;;;;;;11.10;5.10;;;16.70;99.90;;;;;;4992844;28;20456;-80
2022/06/12 03:09:45;;;;;;;6.30;4.63;;;16.70;99.90;;;;;;4993669;28;20417;-80
2022/06/12 03:12:11;;;;;;;7.67;4.50;;;16.60;99.90;;;;;;4993034;28;20252;-79
2022/06/12 03:14:36;;;;;;;10.57;4.03;;;16.60;99.90;;;;;;4992421;28;20173;-80
2022/06/12 03:17:03;;;;;;;10.13;4.97;;;16.50;99.90;;;;;;4996569;28;20409;-80
2022/06/12 03:19:42;;;;;;;9.33;5.33;;;16.40;99.90;;;;;;4997062;28;20186;-79
2022/06/12 03:22:16;;;;;;;8.70;4.47;;;16.40;99.90;;;;;;4995373;28;20444;-79
2022/06/12 03:25:08;;;;;;;10.23;4.67;;;16.40;99.90;;;;;;4996753;28;20414;-80
2022/06/12 03:28:00;;;;;;;6.80;4.63;;;16.30;99.90;;;;;;4978685;28;20463;-79
2022/06/12 03:30:32;;;;;;;7.63;4.10;;;16.30;99.90;;;;;;4979155;28;20413;-79
2022/06/12 03:33:03;;;;;;;8.50;5.27;;;16.30;99.90;;;;;;4996616;28;20462;-81
2022/06/12 03:35:48;;;;;;;6.70;4.30;;;16.20;99.90;;;;;;4996506;28;20427;-80
2022/06/12 03:38:16;;;;;;;8.07;4.57;;;16.30;99.90;;;;;;4996600;28;20409;-79
2022/06/12 03:40:58;;;;;;;4.70;3.60;;;16.30;99.90;;;;;;4996228;28;20455;-80
2022/06/12 03:43:40;;;;;;;6.03;4.00;;;16.20;99.90;;;;;;4996566;28;20408;-79
2022/06/12 03:46:24;;;;;;;10.07;4.60;;;16.30;99.90;;;;;;4978472;28;20800;-80
2022/06/12 03:48:59;;;;;;;7.43;4.20;;;16.30;99.90;;;;;;4978745;28;20491;-79
2022/06/12 03:51:48;;;;;;;9.33;4.47;;;16.30;99.90;;;;;;4995767;28;20458;-80
2022/06/12 03:54:42;;;;;;;5.17;4.00;;;16.30;99.90;;;;;;4996116;28;20427;-79
2022/06/12 04:00:10;;;;;;;5.53;4.00;;;16.20;99.90;;;;;;4995864;28;20404;-80
2022/06/12 04:02:37;;;;;;;6.03;3.73;;;16.20;99.90;;;;;;4996006;28;20432;-80
2022/06/12 04:05:06;;;;;;;8.73;4.47;;;16.20;99.90;;;;;;4995618;28;20416;-79
2022/06/12 04:07:45;;;;;;;7.97;4.60;;;16.30;99.90;;;;;;4977447;28;20488;-79
2022/06/12 04:10:17;;;;;;;9.80;4.40;;;16.20;99.90;;;;;;4995832;28;20409;-80
2022/06/12 04:12:43;;;;;;;14.87;4.50;;;16.20;99.90;;;;;;4995652;28;20433;-79
2022/06/12 04:15:21;;;;;;;5.47;3.43;;;16.20;99.90;;;;;;4995845;28;20483;-79
2022/06/12 04:17:47;;;;;;;6.50;4.33;;;16.20;99.90;;;;;;4995271;28;20595;-80
2022/06/12 04:20:26;;;;;;;8.30;4.07;;;16.30;99.90;;;;;;4995442;28;20425;-80
2022/06/12 04:23:00;;;;;;;7.10;3.93;;;16.30;99.90;;;;;;4993893;28;20818;-79
2022/06/12 04:25:32;;;;;;;5.70;4.20;;;16.40;99.90;;;;;;4994956;28;20400;-79
2022/06/12 04:27:58;;;;;;;4.80;3.20;;;16.40;99.90;;;;;;4995305;28;20527;-79
2022/06/12 04:30:31;;;;;;;8.53;4.03;;;16.40;99.90;;;;;;4993325;28;21114;-79
2022/06/12 04:33:19;;;;;;;10.00;3.83;;;16.40;99.90;;;;;;4993281;28;20491;-79
2022/06/12 04:35:57;;;;;;;8.43;4.10;;;16.40;99.90;;;;;;4994569;28;20433;-79
2022/06/12 04:38:23;;;;;;;6.80;3.87;;;16.40;99.90;;;;;;4994487;28;20916;-79
2022/06/12 04:40:50;;;;;;;7.80;4.30;;;16.50;99.90;;;;;;4994635;28;20413;-79
2022/06/12 04:43:16;;;;;;;12.43;4.60;;;16.60;99.90;;;;;;4994510;28;21182;-79
2022/06/12 04:45:43;;;;;;;6.73;3.90;;;16.60;99.90;;;;;;4994359;28;20789;-79
2022/06/12 04:48:19;;;;;;;6.63;3.73;;;16.70;99.90;;;;;;4976710;28;20547;-80
2022/06/12 04:50:46;;;;;;;5.13;3.63;;;16.70;99.90;;;;;;4994425;28;20412;-79
2022/06/12 04:53:11;;;;;;;6.03;3.73;;;16.80;99.90;;;;;;4994237;28;20551;-79
2022/06/12 04:55:37;;;;;;;7.43;2.90;;;16.80;99.90;;;;;;4993736;28;20625;-79
2022/06/12 04:58:05;;;;;;;8.17;4.13;;;16.90;99.90;;;;;;4976621;28;20636;-79
2022/06/12 05:00:32;;;;;;;6.07;3.37;;;17.00;99.90;;;;;;4992692;28;20192;-79
2022/06/12 05:02:57;;;;;;;6.17;3.90;;;17.00;99.90;;;;;;4992832;28;20452;-79
2022/06/12 05:05:24;;;;;;;7.60;3.80;;;17.10;99.90;;;;;;4993899;28;20417;-78
2022/06/12 05:07:51;;;;;;;12.97;3.70;;;17.20;99.90;;;;;;4993622;28;20756;-79
2022/06/12 05:10:16;;;;;;;5.00;3.80;;;17.20;99.90;;;;;;4992584;28;20429;-79
2022/06/12 05:12:42;;;;;;;6.83;3.40;;;17.20;99.90;;;;;;4993841;28;20436;-79
2022/06/12 05:15:10;;;;;;;4.87;4.03;;;17.20;99.90;;;;;;4993840;28;20639;-79
2022/06/12 05:17:36;;;;;;;8.53;4.00;;;17.30;99.90;;;;;;4992091;28;20193;-80
2022/06/12 05:20:02;;;;;;;9.07;4.53;;;17.40;99.90;;;;;;4992182;28;20421;-79
2022/06/12 05:22:27;;;;;;;6.80;4.20;;;17.50;99.90;;;;;;4992396;28;20693;-79
2022/06/12 05:24:53;;;;;;;8.57;4.27;;;17.60;99.90;;;;;;4993701;28;20535;-79
2022/06/12 05:27:22;;;;;;;12.53;4.90;;;17.70;99.90;;;;;;4975692;28;20205;-79
2022/06/12 05:29:48;;;;;;;8.00;4.40;;;17.70;99.90;;;;;;4993523;28;20174;-79
2022/06/12 05:32:16;;;;;;;8.37;5.13;;;17.80;99.90;;;;;;4993372;28;20853;-79
2022/06/12 05:34:42;;;;;;;8.83;4.93;;;17.80;99.90;;;;;;4975858;28;20999;-79
2022/06/12 05:37:10;;;;;;;8.53;4.63;;;17.90;99.90;;;;;;4992520;28;20837;-79
2022/06/12 05:39:36;;;;;;;6.60;3.70;;;17.90;99.90;;;;;;4992990;28;20936;-79
2022/06/12 05:42:02;;;;;;;7.27;3.80;;;17.90;99.90;;;;;;4975621;28;20445;-79
2022/06/12 05:44:27;;;;;;;5.00;3.40;;;17.90;99.90;;;;;;4993222;28;20955;-80
2022/06/12 05:46:53;;;;;;;8.30;4.03;;;18.00;99.90;;;;;;4975122;28;20205;-79
2022/06/12 05:49:18;;;;;;;5.97;3.90;;;18.10;99.90;;;;;;4993043;28;20177;-79
2022/06/12 05:51:44;;;;;;;6.93;4.33;;;18.10;99.90;;;;;;4992847;28;20244;-79
2022/06/12 05:54:11;;;;;;;6.70;4.17;;;18.20;99.90;;;;;;4991812;28;20181;-79
2022/06/12 05:56:37;;;;;;;7.60;4.40;;;18.30;99.90;;;;;;4992916;28;20173;-79
2022/06/12 05:59:03;;;;;;;9.03;4.23;;;18.40;99.90;;;;;;4975772;28;20967;-80
2022/06/12 06:01:30;;;;;;;6.93;3.90;;;18.40;99.90;;;;;;4992858;28;20452;-79
2022/06/12 06:03:56;;;;;;;5.60;4.30;;;18.50;99.90;;;;;;4975373;28;20444;-79
2022/06/12 06:06:29;;;;;;;9.67;4.13;;;18.60;99.90;;;;;;4975158;28;20417;-79
2022/06/12 06:08:56;;;;;;;6.40;3.00;;;18.70;99.90;;;;;;4975326;28;20409;-79
2022/06/12 06:11:22;;;;;;;4.47;3.00;;;18.80;99.90;;;;;;4975301;28;20956;-79
2022/06/12 06:13:47;;;;;;;4.70;3.30;;;18.80;99.90;;;;;;4975216;28;20428;-79
2022/06/12 06:16:13;;;;;;;4.93;2.70;;;18.80;99.90;;;;;;4992609;28;20413;-79
2022/06/12 06:18:40;;;;;;;6.00;2.93;;;18.80;99.90;;;;;;4991084;28;20177;-80
2022/06/12 06:21:08;;;;;;;6.83;3.00;;;18.80;99.90;;;;;;4991295;28;20177;-79
2022/06/12 06:23:43;;;;;;;4.97;2.33;;;18.90;99.90;;;;;;4991447;28;20418;-79
2022/06/12 06:26:10;;;;;;;8.17;2.70;;;18.90;99.90;;;;;;4974800;28;20423;-79
2022/06/12 06:28:36;;;;;;;8.50;2.80;;;18.90;99.90;;;;;;4992650;28;20457;-79
2022/06/12 06:31:02;;;;;;;4.20;2.83;;;19.00;99.90;;;;;;4992256;28;20408;-79
2022/06/12 06:33:28;;;;;;;3.13;2.00;;;19.00;99.90;;;;;;4992390;28;20754;-79
2022/06/12 06:35:54;;;;;;;7.10;2.50;;;19.10;99.90;;;;;;4992164;28;20432;-79
2022/06/12 06:38:19;;;;;;;4.43;1.70;;;19.20;99.90;;;;;;4992561;28;20212;-79
2022/06/12 06:40:46;;;;;;;4.77;2.40;;;19.30;99.90;;;;;;4992399;28;20180;-79
2022/06/12 06:43:11;;;;;;;6.30;1.93;;;19.40;99.90;;;;;;4992321;28;20201;-79
2022/06/12 06:48:26;;;;;;;4.53;2.03;;;19.60;99.90;;;;;;4992437;28;20271;-79
2022/06/12 06:50:52;;;;;;;5.17;1.97;;;19.60;99.90;;;;;;4978645;28;20877;-79
2022/06/12 06:53:18;;;;;;;3.30;2.30;;;19.70;99.90;;;;;;4978607;28;20492;-80
2022/06/12 06:55:45;;;;;;;4.57;1.60;;;19.70;99.90;;;;;;4995886;28;20519;-80
2022/06/12 06:58:14;;;;;;;4.63;2.40;;;19.80;99.90;;;;;;4996377;28;20416;-80
2022/06/12 07:00:41;;;;;;;6.60;2.20;;;19.90;99.90;;;;;;4996877;28;20459;-80
2022/06/12 07:03:07;;;;;;;3.60;1.60;;;19.90;99.90;;;;;;4996482;28;20468;-80
2022/06/12 07:05:33;;;;;;;3.50;1.90;;;19.90;99.90;;;;;;4978946;28;20494;-80
2022/06/12 07:08:00;;;;;;;4.43;1.80;;;19.90;99.90;;;;;;4996075;28;21021;-81
2022/06/12 07:10:28;;;;;;;5.00;3.43;;;19.90;99.90;;;;;;4996469;28;20420;-80
2022/06/12 07:12:55;;;;;;;4.50;2.13;;;20.00;99.90;;;;;;4996097;28;20434;-80
2022/06/12 07:15:21;;;;;;;5.33;1.80;;;20.00;99.90;;;;;;4996374;28;20499;-80
2022/06/12 07:17:47;;;;;;;3.00;1.70;;;20.00;99.90;;;;;;4978721;28;20460;-80
2022/06/12 07:20:15;;;;;;;3.50;2.00;;;19.90;99.90;;;;;;4994938;28;20177;-80
2022/06/12 07:22:41;;;;;;;6.50;2.20;;;19.90;99.90;;;;;;4978223;28;20205;-80
2022/06/12 07:25:08;;;;;;;4.80;2.03;;;20.00;99.90;;;;;;4978307;28;20417;-80
2022/06/12 07:27:33;;;;;;;3.70;1.70;;;20.10;99.90;;;;;;4995724;28;20464;-80
2022/06/12 07:29:59;;;;;;;7.60;2.23;;;20.20;99.90;;;;;;4978976;28;20878;-80
2022/06/12 07:32:26;;;;;;;8.13;1.90;;;20.30;99.90;;;;;;4996394;28;20193;-80
2022/06/12 07:34:53;;;;;;;5.00;1.47;;;20.40;99.90;;;;;;4997146;28;20174;-81
2022/06/12 07:37:20;;;;;;;3.13;1.60;;;20.50;99.90;;;;;;4997947;28;20432;-81
2022/06/12 07:39:46;;;;;;;3.00;1.40;;;20.60;99.90;;;;;;4980658;28;20459;-81
2022/06/12 07:42:11;;;;;;;5.10;1.60;;;20.50;99.90;;;;;;4997413;28;20429;-80
2022/06/12 07:44:37;;;;;;;3.93;1.20;;;20.60;99.90;;;;;;4997443;28;20427;-80
2022/06/12 07:47:04;;;;;;;4.30;1.80;;;20.70;99.90;;;;;;4997101;28;20213;-81
2022/06/12 07:49:31;;;;;;;2.90;1.50;;;20.70;99.90;;;;;;4997545;28;20241;-80
2022/06/12 07:51:59;;;;;;;3.13;1.33;;;20.80;99.90;;;;;;4997582;28;20832;-81
2022/06/12 07:54:25;;;;;;;2.93;1.20;;;21.00;99.90;;;;;;4979788;28;20425;-81
2022/06/12 07:56:51;;;;;;;2.63;1.30;;;21.10;99.90;;;;;;4995785;28;20425;-80
2022/06/12 07:59:17;;;;;;;3.90;1.30;;;21.10;99.90;;;;;;4997566;28;20520;-81
2022/06/12 08:01:43;;;;;;;3.87;1.60;;;21.20;99.90;;;;;;4996298;28;20444;-81
2022/06/12 08:04:10;;;;;;;3.37;1.70;;;21.30;99.90;;;;;;4997657;28;20409;-81
2022/06/12 08:06:36;;;;;;;2.90;1.60;;;21.40;99.90;;;;;;4996940;28;20747;-81
2022/06/12 08:09:05;;;;;;;2.93;1.33;;;21.50;99.90;;;;;;4997439;28;20410;-81
2022/06/12 08:11:32;;;;;;;3.70;1.40;;;21.80;99.90;;;;;;4979273;28;20437;-81
2022/06/12 08:13:59;;;;;;;3.20;1.50;;;22.70;99.90;;;;;;4997547;28;20488;-81
2022/06/12 08:16:24;;;;;;;3.40;1.50;;;23.90;99.90;;;;;;4996525;28;20961;-80
2022/06/12 08:18:50;;;;;;;3.97;1.80;;;;;;;;;;4997036;28;20444;-81
2022/06/12 08:21:16;;;;;;;3.10;1.30;;;25.60;99.90;;;;;;4979434;28;20288;-81
2022/06/12 08:23:48;;;;;;;3.30;1.13;;;26.40;99.90;;;;;;4996809;28;20405;-81
2022/06/12 08:26:16;;;;;;;2.40;1.10;;;27.60;94.90;;;;;;4996499;28;20429;-81
2022/06/12 08:28:54;;;;;;;3.50;1.50;;;27.60;93.10;;;;;;4996487;28;20943;-80
2022/06/12 08:31:26;;;;;;;3.33;1.53;;;28.20;87.20;;;;;;4997710;28;20516;-81
2022/06/12 08:33:56;;;;;;;2.97;1.10;;;29.00;86.30;;;;;;4998998;28;20815;-82
2022/06/12 08:36:22;;;;;;;3.37;1.37;;;30.00;82.30;;;;;;4981788;28;20846;-82
2022/06/12 08:38:49;;;;;;;3.03;1.10;;;30.70;71.80;;;;;;4998505;28;20504;-81
2022/06/12 08:41:19;;;;;;;2.77;1.30;;;31.40;69.20;;;;;;4998488;28;20752;-81
2022/06/12 08:44:06;;;;;;;2.33;1.03;;;31.90;57.50;;;;;;4998507;28;20420;-81
2022/06/12 08:47:13;;;;;;;3.10;1.10;;;31.80;55.50;;;;;;4997752;28;20486;-82
2022/06/12 08:50:00;;;;;;;2.53;0.90;;;32.50;54.40;;;;;;4980440;28;20425;-81
2022/06/12 08:52:49;;;;;;;2.57;1.10;;;33.00;52.30;;;;;;5050630;22;20474;-83
2022/06/12 08:55:37;;;;;;;2.80;1.30;;;33.30;48.90;;;;;;5027628;28;20436;-82
2022/06/12 08:58:13;;;;;;;2.87;1.07;;;33.00;46.80;;;;;;5017276;28;20414;-82
2022/06/12 09:00:39;;;;;;;2.40;0.90;;;33.00;45.10;;;;;;5018413;28;20466;-82
2022/06/12 09:03:07;;;;;;;4.30;0.97;;;33.50;46.10;;;;;;5034153;28;20834;-82
2022/06/12 09:05:46;;;;;;;2.20;1.10;;;33.70;43.10;;;;;;5016232;28;20409;-82
2022/06/12 09:08:41;;;;;;;2.20;0.70;;;34.00;42.30;;;;;;5016685;28;20491;-82
2022/06/12 09:11:31;;;;;;;2.13;0.93;;;34.40;41.30;;;;;;5016168;28;20432;-79
2022/06/12 09:14:03;;;;;;;2.03;0.87;;;35.00;42.60;;;;;;5017587;28;20479;-79
2022/06/12 09:16:33;;;;;;;2.07;0.90;;;;;;;;;;5016529;28;20420;-79
2022/06/12 09:19:10;;;;;;;2.00;0.87;;;36.30;39.50;;;;;;5017139;28;20428;-79
2022/06/12 09:22:09;;;;;;;2.93;1.07;;;36.50;39.60;;;;;;5017218;28;20910;-80
2022/06/12 09:24:44;;;;;;;2.70;1.20;;;37.40;37.90;;;;;;5017673;28;20480;-79
2022/06/12 09:27:26;;;;;;;2.40;1.10;;;37.00;36.10;;;;;;5017494;28;20446;-79
2022/06/12 09:30:12;;;;;;;3.60;1.20;;;37.00;37.40;;;;;;5017468;28;20788;-80
2022/06/12 09:32:57;;;;;;;2.00;0.80;;;37.60;38.00;;;;;;5017319;28;20444;-79
2022/06/12 09:35:35;;;;;;;4.13;1.30;;;37.60;36.90;;;;;;5015045;28;20431;-79
2022/06/12 09:38:22;;;;;;;3.80;1.20;;;38.00;36.30;;;;;;5013823;28;20419;-80
2022/06/12 09:41:09;;;;;;;2.70;1.30;;;37.90;34.80;;;;;;5012369;28;20427;-79
2022/06/12 09:44:01;;;;;;;3.10;1.50;;;37.90;35.30;;;;;;5013488;28;20467;-79
2022/06/12 09:46:47;;;;;;;2.50;1.13;;;37.70;36.30;;;;;;5012052;28;20423;-79
2022/06/12 09:49:16;;;;;;;2.83;1.40;;;38.20;35.80;;;;;;5013344;28;20402;-79
2022/06/12 09:52:06;;;;;;;2.90;1.00;;;38.70;35.80;;;;;;5014288;28;20957;-80
2022/06/12 09:54:47;;;;;;;2.20;1.00;;;39.50;36.90;;;;;;5013306;28;20595;-79
2022/06/12 09:57:29;;;;;;;2.57;1.43;;;39.40;33.60;;;;;;5013454;28;20407;-79
2022/06/12 10:00:03;;;;;;;3.17;1.50;;;38.50;34.40;;;;;;5012880;28;20404;-79
2022/06/12 10:02:54;;;;;;;2.90;1.17;;;37.70;35.70;;;;;;5013258;28;20427;-79
2022/06/12 10:05:24;;;;;;;2.87;1.57;;;37.10;36.10;;;;;;5012969;28;20412;-79
2022/06/12 10:08:05;;;;;;;3.20;2.20;;;37.60;35.00;;;;;;5013113;28;20993;-79
2022/06/12 10:10:43;;;;;;;2.97;1.47;;;37.80;34.80;;;;;;5012770;28;20424;-79
2022/06/12 10:13:16;;;;;;;3.70;1.60;;;37.80;36.80;;;;;;5015341;28;20535;-80
2022/06/12 10:15:52;;;;;;;2.53;1.20;;;38.40;37.10;;;;;;5017976;28;20408;-80
2022/06/12 10:18:23;;;;;;;3.40;1.53;;;39.00;36.20;;;;;;5018651;28;20971;-80
2022/06/12 10:21:01;;;;;;;4.00;2.10;;;38.40;33.80;;;;;;5017467;28;20450;-80
2022/06/12 10:23:27;;;;;;;2.60;1.17;;;37.10;33.70;;;;;;5017710;28;20446;-80
2022/06/12 10:25:56;;;;;;;3.17;1.50;;;36.90;35.90;;;;;;5017944;28;20435;-80
2022/06/12 10:28:38;;;;;;;3.43;1.10;;;36.20;34.60;;;;;;5018121;28;20199;-79
2022/06/12 10:31:20;;;;;;;3.50;1.10;;;35.80;37.20;;;;;;5020428;28;20415;-81
2022/06/12 10:33:54;;;;;;;4.00;1.50;;;36.30;37.70;;;;;;5021798;28;20431;-80
2022/06/12 10:36:26;;;;;;;3.30;2.00;;;36.20;35.50;;;;;;5020656;28;20483;-80
2022/06/12 10:39:05;;;;;;;2.93;1.10;;;35.10;36.60;;;;;;5021702;28;20416;-79
2022/06/12 10:41:31;;;;;;;3.33;1.30;;;34.20;37.70;;;;;;5020707;28;20443;-80
2022/06/12 10:43:57;;;;;;;3.87;1.40;;;33.30;39.00;;;;;;5020740;28;20541;-81
2022/06/12 10:46:42;;;;;;;2.40;1.00;;;32.80;38.60;;;;;;5021393;28;20447;-80
2022/06/12 10:49:23;;;;;;;2.93;1.20;;;32.60;39.60;;;;;;5022914;28;20420;-80
2022/06/12 10:51:50;;;;;;;2.87;1.20;;;32.90;38.80;;;;;;5021920;28;20412;-80
2022/06/12 10:54:20;;;;;;;3.53;2.20;;;33.10;39.20;;;;;;5023229;28;20456;-80
2022/06/12 10:57:08;;;;;;;4.00;1.20;;;34.00;39.40;;;;;;5018808;28;20447;-81
2022/06/12 10:59:39;;;;;;;4.27;1.23;;;34.10;39.00;;;;;;5012586;28;20899;-79
2022/06/12 11:02:23;;;;;;;5.23;1.67;;;33.50;39.80;;;;;;5014411;28;20903;-79
2022/06/12 11:05:03;;;;;;;3.17;1.37;;;32.30;41.20;;;;;;5014712;28;20443;-79
2022/06/12 11:07:56;;;;;;;2.60;1.20;;;31.40;41.50;;;;;;5027996;28;20463;-79
2022/06/12 11:10:38;;;;;;;3.33;1.33;;;30.50;43.70;;;;;;4982187;28;20439;-80
2022/06/12 11:13:04;;;;;;;3.03;1.33;;;29.70;44.10;;;;;;5030836;28;20450;-80
2022/06/12 11:16:06;;;;;;;4.47;1.87;;;28.90;43.40;;;;;;5028910;28;20419;-81
2022/06/12 11:18:44;;;;;;;3.47;1.20;;;28.70;44.10;;;;;;5012072;28;20208;-81
2022/06/12 11:21:22;;;;;;;3.87;1.90;;;28.30;44.20;;;;;;5011015;28;20498;-80
2022/06/12 11:23:47;;;;;;;3.67;1.50;;;28.10;45.50;;;;;;5018149;28;20435;-80
2022/06/12 11:26:36;;;;;;;4.40;1.40;;;27.70;47.80;;;;;;5028732;28;20449;-79
2022/06/12 11:29:14;;;;;;;5.97;1.53;;;27.50;47.90;;;;;;5012412;28;20192;-78
2022/06/12 11:31:45;;;;;;;4.10;1.50;;;27.30;49.10;;;;;;5016556;28;20790;-78
2022/06/12 11:34:42;;;;;;;4.37;2.30;;;27.20;50.60;;;;;;5010011;28;20687;-80
2022/06/12 11:37:10;;;;;;;7.57;1.47;;;27.10;51.60;;;;;;5012983;28;20439;-80
2022/06/12 11:39:59;;;;;;;3.90;1.70;;;27.00;49.70;;;;;;5015022;28;20443;-80
2022/06/12 11:42:45;;;;;;;3.07;1.40;;;26.60;48.10;;;;;;5002822;28;20443;-81
2022/06/12 11:45:24;;;;;;;4.50;1.70;;;26.70;50.80;;;;;;5014831;28;20415;-80
2022/06/12 11:48:22;;;;;;;3.73;1.30;;;26.80;48.70;;;;;;5014166;28;20514;-80
2022/06/12 11:50:56;;;;;;;5.33;1.93;;;27.00;49.60;;;;;;5014745;28;20440;-81
2022/06/12 11:53:39;;;;;;;4.97;1.93;;;27.10;51.00;;;;;;5015059;28;20448;-81
2022/06/12 11:56:16;;;;;;;3.70;1.20;;;27.50;51.60;;;;;;5014463;28;20431;-81
2022/06/12 11:58:57;;;;;;;4.40;1.60;;;27.60;52.00;;;;;;5014435;28;20436;-80
2022/06/12 12:01:42;;;;;;;4.67;1.70;;;27.50;50.30;;;;;;5021322;28;20442;-81
2022/06/12 12:04:32;;;;;;;4.80;1.63;;;27.60;49.60;;;;;;5040582;28;20484;-81
2022/06/12 12:07:19;;;;;;;2.67;1.33;;;27.20;50.90;;;;;;5035382;28;20452;-81
2022/06/12 12:10:05;;;;;;;4.33;1.80;;;27.30;51.00;;;;;;5026881;28;20787;-81
2022/06/12 12:12:38;;;;;;;5.30;2.17;;;27.30;50.90;;;;;;5025706;28;20906;-81
2022/06/12 12:15:11;;;;;;;3.60;1.67;;;27.40;52.70;;;;;;5024979;28;20426;-80
2022/06/12 12:17:40;;;;;;;3.30;1.87;;;27.10;50.90;;;;;;5025167;28;20419;-81
2022/06/12 12:20:11;;;;;;;3.23;1.50;;;27.00;51.70;;;;;;5027754;28;20432;-79
2022/06/12 12:22:47;;;;;;;5.07;1.83;;;27.00;51.10;;;;;;5026005;28;20543;-80
2022/06/12 12:25:22;;;;;;;3.90;1.60;;;27.00;51.90;;;;;;5024403;28;20540;-79
2022/06/12 12:27:52;;;;;;;3.83;1.37;;;27.00;53.50;;;;;;5020270;28;21104;-79
2022/06/12 12:30:24;;;;;;;4.17;1.73;;;27.00;54.20;;;;;;5020992;28;20416;-80
2022/06/12 12:32:52;;;;;;;3.90;1.97;;;27.00;53.70;;;;;;5016798;28;20450;-79
2022/06/12 12:44:06;;;;;;;4.00;1.40;;;27.00;49.30;;;;;;5021840;28;20895;-79
2022/06/12 12:46:45;;;;;;;5.83;1.73;;;26.90;49.10;;;;;;5023268;28;20431;-79
2022/06/12 12:49:34;;;;;;;2.97;1.40;;;26.90;49.50;;;;;;5023023;28;20477;-79
2022/06/12 12:52:06;;;;;;;4.90;1.47;;;26.90;49.70;;;;;;5023635;28;20451;-79
2022/06/12 12:54:59;;;;;;;3.50;1.50;;;27.00;50.60;;;;;;5025984;28;20424;-79
2022/06/12 12:57:43;;;;;;;6.43;1.70;;;27.00;50.60;;;;;;5022876;28;20463;-79
2022/06/12 13:00:17;;;;;;;2.70;1.37;;;27.10;49.20;;;;;;5017871;28;20481;-79
2022/06/12 13:02:54;;;;;;;3.47;1.60;;;27.20;51.00;;;;;;5017689;28;20431;-79
2022/06/12 13:05:43;;;;;;;3.03;1.90;;;27.30;52.40;;;;;;5017652;28;20424;-80
2022/06/12 13:08:39;;;;;;;4.00;1.83;;;27.00;52.50;;;;;;5014262;28;20456;-79
2022/06/12 13:11:11;;;;;;;2.43;1.40;;;27.00;52.80;;;;;;5017056;28;20443;-79
2022/06/12 13:14:14;;;;;;;2.90;1.67;;;27.20;53.60;;;;;;5016881;28;20424;-78
2022/06/12 13:16:52;;;;;;;3.03;1.40;;;27.60;53.20;;;;;;5014837;28;20451;-79
2022/06/12 13:20:02;;;;;;;4.27;1.50;;;27.80;53.80;;;;;;5015559;28;20443;-80
2022/06/12 13:22:36;;;;;;;4.10;1.60;;;28.50;53.90;;;;;;4993817;28;20460;-80
2022/06/12 13:25:07;;;;;;;3.50;2.03;;;29.00;49.70;;;;;;4994390;28;20816;-80
2022/06/12 13:27:46;;;;;;;3.93;2.00;;;29.30;51.40;;;;;;5008400;28;20518;-79
2022/06/12 13:30:21;;;;;;;6.23;2.20;;;29.70;51.10;;;;;;5027686;28;20505;-80
2022/06/12 13:32:46;;;;;;;4.70;2.00;;;29.30;50.10;;;;;;5032460;28;20435;-80
2022/06/12 13:35:29;;;;;;;5.03;1.70;;;29.00;51.80;;;;;;5035984;28;20403;-80
2022/06/12 13:38:01;;;;;;;4.10;1.73;;;29.30;51.00;;;;;;5035130;28;20171;-80
2022/06/12 13:40:36;;;;;;;3.60;1.77;;;29.40;50.70;;;;;;5034604;28;20419;-80
2022/06/12 13:43:13;;;;;;;4.27;1.87;;;29.40;49.90;;;;;;5034362;28;20984;-79